sensor_id;sensor_type;location;lat;lon;timestamp;temperature;humidity
68026;SHT31;54819;48.030;14.710;2023-05-16T00:02:21;10.62;86.20
68026;SHT31;54819;48.030;14.710;2023-05-16T00:04:48;10.61;86.17
68026;SHT31;54819;48.030;14.710;2023-05-16T00:07:14;10.59;86.35
68026;SHT31;54819;48.030;14.710;2023-05-16T00:09:41;10.55;86.16
68026;SHT31;54819;48.030;14.710;2023-05-16T00:12:08;10.50;86.11
68026;SHT31;54819;48.030;14.710;2023-05-16T00:14:36;10.46;85.74
68026;SHT31;54819;48.030;14.710;2023-05-16T00:17:03;10.39;85.71
68026;SHT31;54819;48.030;14.710;2023-05-16T00:19:37;10.36;85.71
68026;SHT31;54819;48.030;14.710;2023-05-16T00:22:07;10.33;85.85
68026;SHT31;54819;48.030;14.710;2023-05-16T00:24:34;10.32;85.94
68026;SHT31;54819;48.030;14.710;2023-05-16T00:27:00;10.28;86.01
68026;SHT31;54819;48.030;14.710;2023-05-16T00:29:33;10.27;86.13
68026;SHT31;54819;48.030;14.710;2023-05-16T00:32:00;10.24;86.23
68026;SHT31;54819;48.030;14.710;2023-05-16T00:34:27;10.22;86.24
68026;SHT31;54819;48.030;14.710;2023-05-16T00:36:54;10.20;86.22
68026;SHT31;54819;48.030;14.710;2023-05-16T00:39:21;10.18;86.29
68026;SHT31;54819;48.030;14.710;2023-05-16T00:41:47;10.18;86.25
68026;SHT31;54819;48.030;14.710;2023-05-16T00:44:14;10.16;86.22
68026;SHT31;54819;48.030;14.710;2023-05-16T00:46:41;10.13;86.32
68026;SHT31;54819;48.030;14.710;2023-05-16T00:49:08;10.11;86.38
68026;SHT31;54819;48.030;14.710;2023-05-16T00:51:36;10.10;86.40
68026;SHT31;54819;48.030;14.710;2023-05-16T00:54:04;10.10;86.44
68026;SHT31;54819;48.030;14.710;2023-05-16T00:56:32;10.10;86.45
68026;SHT31;54819;48.030;14.710;2023-05-16T00:59:00;10.08;86.52
68026;SHT31;54819;48.030;14.710;2023-05-16T01:01:27;10.06;86.49
68026;SHT31;54819;48.030;14.710;2023-05-16T01:03:54;10.05;86.47
68026;SHT31;54819;48.030;14.710;2023-05-16T01:06:21;10.05;86.53
68026;SHT31;54819;48.030;14.710;2023-05-16T01:08:48;10.03;86.51
68026;SHT31;54819;48.030;14.710;2023-05-16T01:11:21;10.04;86.61
68026;SHT31;54819;48.030;14.710;2023-05-16T01:14:22;10.07;86.77
68026;SHT31;54819;48.030;14.710;2023-05-16T01:17:44;10.11;86.86
68026;SHT31;54819;48.030;14.710;2023-05-16T01:21:00;10.16;86.92
68026;SHT31;54819;48.030;14.710;2023-05-16T01:23:51;10.20;86.87
68026;SHT31;54819;48.030;14.710;2023-05-16T01:26:33;10.18;86.73
68026;SHT31;54819;48.030;14.710;2023-05-16T01:29:02;10.16;86.60
68026;SHT31;54819;48.030;14.710;2023-05-16T01:31:29;10.14;86.40
68026;SHT31;54819;48.030;14.710;2023-05-16T01:33:55;10.12;86.33
68026;SHT31;54819;48.030;14.710;2023-05-16T01:36:29;10.10;86.59
68026;SHT31;54819;48.030;14.710;2023-05-16T01:42:09;10.13;86.73
68026;SHT31;54819;48.030;14.710;2023-05-16T01:44:42;10.13;86.73
68026;SHT31;54819;48.030;14.710;2023-05-16T01:47:24;10.11;86.76
68026;SHT31;54819;48.030;14.710;2023-05-16T01:55:33;10.09;87.16
68026;SHT31;54819;48.030;14.710;2023-05-16T01:58:16;10.10;87.40
68026;SHT31;54819;48.030;14.710;2023-05-16T02:00:48;10.11;87.42
68026;SHT31;54819;48.030;14.710;2023-05-16T02:03:14;10.14;87.37
68026;SHT31;54819;48.030;14.710;2023-05-16T02:05:44;10.14;87.51
68026;SHT31;54819;48.030;14.710;2023-05-16T02:08:12;10.16;87.36
68026;SHT31;54819;48.030;14.710;2023-05-16T02:10:40;10.16;87.42
68026;SHT31;54819;48.030;14.710;2023-05-16T02:13:07;10.17;87.41
68026;SHT31;54819;48.030;14.710;2023-05-16T02:15:33;10.19;87.35
68026;SHT31;54819;48.030;14.710;2023-05-16T02:18:00;10.18;87.21
68026;SHT31;54819;48.030;14.710;2023-05-16T02:20:27;10.19;87.14
68026;SHT31;54819;48.030;14.710;2023-05-16T02:22:53;10.20;87.12
68026;SHT31;54819;48.030;14.710;2023-05-16T02:25:21;10.22;87.18
68026;SHT31;54819;48.030;14.710;2023-05-16T02:27:47;10.22;87.20
68026;SHT31;54819;48.030;14.710;2023-05-16T02:30:14;10.22;87.28
68026;SHT31;54819;48.030;14.710;2023-05-16T02:32:41;10.25;87.36
68026;SHT31;54819;48.030;14.710;2023-05-16T02:35:10;10.25;87.40
68026;SHT31;54819;48.030;14.710;2023-05-16T02:37:38;10.27;87.49
68026;SHT31;54819;48.030;14.710;2023-05-16T02:40:06;10.29;87.45
68026;SHT31;54819;48.030;14.710;2023-05-16T02:42:35;10.29;87.30
68026;SHT31;54819;48.030;14.710;2023-05-16T02:45:02;10.29;87.28
68026;SHT31;54819;48.030;14.710;2023-05-16T02:47:29;10.27;87.15
68026;SHT31;54819;48.030;14.710;2023-05-16T02:49:55;10.27;87.24
68026;SHT31;54819;48.030;14.710;2023-05-16T02:52:22;10.27;87.27
68026;SHT31;54819;48.030;14.710;2023-05-16T02:54:49;10.28;87.30
68026;SHT31;54819;48.030;14.710;2023-05-16T02:57:35;10.30;87.32
68026;SHT31;54819;48.030;14.710;2023-05-16T03:00:02;10.30;87.35
68026;SHT31;54819;48.030;14.710;2023-05-16T03:02:31;10.31;87.39
68026;SHT31;54819;48.030;14.710;2023-05-16T03:04:58;10.31;87.36
68026;SHT31;54819;48.030;14.710;2023-05-16T03:07:24;10.33;87.34
68026;SHT31;54819;48.030;14.710;2023-05-16T03:09:51;10.32;87.37
68026;SHT31;54819;48.030;14.710;2023-05-16T03:12:18;10.32;87.29
68026;SHT31;54819;48.030;14.710;2023-05-16T03:14:44;10.33;87.22
68026;SHT31;54819;48.030;14.710;2023-05-16T03:17:11;10.32;87.20
68026;SHT31;54819;48.030;14.710;2023-05-16T03:19:37;10.32;87.31
68026;SHT31;54819;48.030;14.710;2023-05-16T03:22:04;10.33;87.42
68026;SHT31;54819;48.030;14.710;2023-05-16T03:24:31;10.32;87.36
68026;SHT31;54819;48.030;14.710;2023-05-16T03:26:58;10.32;87.34
68026;SHT31;54819;48.030;14.710;2023-05-16T03:29:25;10.32;87.32
68026;SHT31;54819;48.030;14.710;2023-05-16T03:31:52;10.31;87.30
68026;SHT31;54819;48.030;14.710;2023-05-16T03:34:19;10.31;87.23
68026;SHT31;54819;48.030;14.710;2023-05-16T03:36:47;10.32;87.23
68026;SHT31;54819;48.030;14.710;2023-05-16T03:39:15;10.34;87.23
68026;SHT31;54819;48.030;14.710;2023-05-16T03:41:42;10.34;87.30
68026;SHT31;54819;48.030;14.710;2023-05-16T03:44:09;10.37;87.28
68026;SHT31;54819;48.030;14.710;2023-05-16T03:46:36;10.40;87.32
68026;SHT31;54819;48.030;14.710;2023-05-16T03:49:03;10.44;87.36
68026;SHT31;54819;48.030;14.710;2023-05-16T03:51:30;10.48;87.38
68026;SHT31;54819;48.030;14.710;2023-05-16T03:53:57;10.50;87.45
68026;SHT31;54819;48.030;14.710;2023-05-16T03:56:23;10.50;87.31
68026;SHT31;54819;48.030;14.710;2023-05-16T03:58:50;10.49;87.35
68026;SHT31;54819;48.030;14.710;2023-05-16T04:01:17;10.51;87.48
68026;SHT31;54819;48.030;14.710;2023-05-16T04:03:43;10.52;87.63
68026;SHT31;54819;48.030;14.710;2023-05-16T04:06:10;10.52;87.87
68026;SHT31;54819;48.030;14.710;2023-05-16T04:08:37;10.53;87.71
68026;SHT31;54819;48.030;14.710;2023-05-16T04:11:06;10.57;87.62
68026;SHT31;54819;48.030;14.710;2023-05-16T04:13:32;10.59;87.59
68026;SHT31;54819;48.030;14.710;2023-05-16T04:15:59;10.64;87.55
68026;SHT31;54819;48.030;14.710;2023-05-16T04:18:26;10.67;87.39
68026;SHT31;54819;48.030;14.710;2023-05-16T04:20:53;10.68;87.34
68026;SHT31;54819;48.030;14.710;2023-05-16T04:23:19;10.70;87.34
68026;SHT31;54819;48.030;14.710;2023-05-16T04:25:46;10.74;87.34
68026;SHT31;54819;48.030;14.710;2023-05-16T04:28:13;10.79;87.30
68026;SHT31;54819;48.030;14.710;2023-05-16T04:30:40;10.84;87.34
68026;SHT31;54819;48.030;14.710;2023-05-16T04:33:06;10.91;87.33
68026;SHT31;54819;48.030;14.710;2023-05-16T04:35:33;10.97;87.36
68026;SHT31;54819;48.030;14.710;2023-05-16T04:38:01;11.05;87.34
68026;SHT31;54819;48.030;14.710;2023-05-16T04:40:27;11.10;87.28
68026;SHT31;54819;48.030;14.710;2023-05-16T04:42:54;11.15;87.15
68026;SHT31;54819;48.030;14.710;2023-05-16T04:45:21;11.19;87.34
68026;SHT31;54819;48.030;14.710;2023-05-16T04:47:47;11.26;87.18
68026;SHT31;54819;48.030;14.710;2023-05-16T04:50:14;11.37;86.99
68026;SHT31;54819;48.030;14.710;2023-05-16T04:52:42;11.52;86.83
68026;SHT31;54819;48.030;14.710;2023-05-16T04:55:09;11.68;86.63
68026;SHT31;54819;48.030;14.710;2023-05-16T04:57:36;11.85;86.44
68026;SHT31;54819;48.030;14.710;2023-05-16T05:00:03;12.04;86.27
68026;SHT31;54819;48.030;14.710;2023-05-16T05:02:37;12.26;86.04
68026;SHT31;54819;48.030;14.710;2023-05-16T05:05:04;12.60;85.73
68026;SHT31;54819;48.030;14.710;2023-05-16T05:07:32;12.93;85.22
68026;SHT31;54819;48.030;14.710;2023-05-16T05:09:59;13.16;84.85
68026;SHT31;54819;48.030;14.710;2023-05-16T05:12:25;13.26;84.24
68026;SHT31;54819;48.030;14.710;2023-05-16T05:14:55;13.34;84.06
68026;SHT31;54819;48.030;14.710;2023-05-16T05:17:22;13.38;83.76
68026;SHT31;54819;48.030;14.710;2023-05-16T05:19:49;13.43;83.72
68026;SHT31;54819;48.030;14.710;2023-05-16T05:22:15;13.56;83.52
68026;SHT31;54819;48.030;14.710;2023-05-16T05:24:42;13.69;83.30
68026;SHT31;54819;48.030;14.710;2023-05-16T05:27:09;13.78;83.07
68026;SHT31;54819;48.030;14.710;2023-05-16T05:29:36;13.84;82.95
68026;SHT31;54819;48.030;14.710;2023-05-16T05:32:02;13.90;82.68
68026;SHT31;54819;48.030;14.710;2023-05-16T05:34:30;13.98;82.29
68026;SHT31;54819;48.030;14.710;2023-05-16T05:36:58;14.04;81.52
68026;SHT31;54819;48.030;14.710;2023-05-16T05:39:25;14.10;81.49
68026;SHT31;54819;48.030;14.710;2023-05-16T05:41:52;14.20;81.24
68026;SHT31;54819;48.030;14.710;2023-05-16T05:44:18;14.35;81.18
68026;SHT31;54819;48.030;14.710;2023-05-16T05:46:45;14.53;81.13
68026;SHT31;54819;48.030;14.710;2023-05-16T05:49:12;14.73;80.95
68026;SHT31;54819;48.030;14.710;2023-05-16T05:51:39;14.98;80.58
68026;SHT31;54819;48.030;14.710;2023-05-16T05:54:06;15.24;80.22
68026;SHT31;54819;48.030;14.710;2023-05-16T05:56:33;15.49;79.71
68026;SHT31;54819;48.030;14.710;2023-05-16T05:59:00;15.67;79.33
68026;SHT31;54819;48.030;14.710;2023-05-16T06:01:27;15.81;78.29
68026;SHT31;54819;48.030;14.710;2023-05-16T06:03:53;15.84;77.39
68026;SHT31;54819;48.030;14.710;2023-05-16T06:06:20;15.88;77.93
68026;SHT31;54819;48.030;14.710;2023-05-16T06:08:47;15.91;77.96
68026;SHT31;54819;48.030;14.710;2023-05-16T06:11:14;15.94;77.85
68026;SHT31;54819;48.030;14.710;2023-05-16T06:13:41;15.95;76.94
68026;SHT31;54819;48.030;14.710;2023-05-16T06:16:07;15.90;76.55
68026;SHT31;54819;48.030;14.710;2023-05-16T06:18:35;15.90;76.71
68026;SHT31;54819;48.030;14.710;2023-05-16T06:21:02;15.97;77.37
68026;SHT31;54819;48.030;14.710;2023-05-16T06:23:29;15.95;75.79
68026;SHT31;54819;48.030;14.710;2023-05-16T06:25:56;15.99;76.83
68026;SHT31;54819;48.030;14.710;2023-05-16T06:28:23;16.03;75.52
68026;SHT31;54819;48.030;14.710;2023-05-16T06:30:50;15.97;74.77
68026;SHT31;54819;48.030;14.710;2023-05-16T06:33:17;15.95;74.89
68026;SHT31;54819;48.030;14.710;2023-05-16T06:35:44;16.06;75.94
68026;SHT31;54819;48.030;14.710;2023-05-16T06:38:14;16.09;75.50
68026;SHT31;54819;48.030;14.710;2023-05-16T06:40:41;16.10;75.16
68026;SHT31;54819;48.030;14.710;2023-05-16T06:43:08;15.98;75.35
68026;SHT31;54819;48.030;14.710;2023-05-16T06:45:34;15.87;76.01
68026;SHT31;54819;48.030;14.710;2023-05-16T06:48:01;15.79;75.76
68026;SHT31;54819;48.030;14.710;2023-05-16T06:50:28;15.76;76.54
68026;SHT31;54819;48.030;14.710;2023-05-16T06:52:55;15.74;76.78
68026;SHT31;54819;48.030;14.710;2023-05-16T06:55:22;15.69;74.95
68026;SHT31;54819;48.030;14.710;2023-05-16T06:57:49;15.65;75.53
68026;SHT31;54819;48.030;14.710;2023-05-16T07:00:16;15.62;75.56
68026;SHT31;54819;48.030;14.710;2023-05-16T07:02:43;15.65;75.43
68026;SHT31;54819;48.030;14.710;2023-05-16T07:05:11;15.61;74.97
68026;SHT31;54819;48.030;14.710;2023-05-16T07:07:38;15.64;75.13
68026;SHT31;54819;48.030;14.710;2023-05-16T07:10:04;15.63;73.97
68026;SHT31;54819;48.030;14.710;2023-05-16T07:12:32;15.66;74.64
68026;SHT31;54819;48.030;14.710;2023-05-16T07:14:58;15.71;75.30
68026;SHT31;54819;48.030;14.710;2023-05-16T07:17:25;15.77;74.86
68026;SHT31;54819;48.030;14.710;2023-05-16T07:19:52;15.90;75.26
68026;SHT31;54819;48.030;14.710;2023-05-16T07:22:19;16.04;75.53
68026;SHT31;54819;48.030;14.710;2023-05-16T07:24:46;16.09;73.40
68026;SHT31;54819;48.030;14.710;2023-05-16T07:27:12;16.12;73.24
68026;SHT31;54819;48.030;14.710;2023-05-16T07:29:39;16.12;72.21
68026;SHT31;54819;48.030;14.710;2023-05-16T07:32:06;16.10;72.29
68026;SHT31;54819;48.030;14.710;2023-05-16T07:34:34;15.99;72.22
68026;SHT31;54819;48.030;14.710;2023-05-16T07:37:00;15.84;72.40
68026;SHT31;54819;48.030;14.710;2023-05-16T07:39:27;15.75;72.98
68026;SHT31;54819;48.030;14.710;2023-05-16T07:41:54;15.72;73.04
68026;SHT31;54819;48.030;14.710;2023-05-16T07:44:22;15.68;72.69
68026;SHT31;54819;48.030;14.710;2023-05-16T07:46:49;15.67;73.18
68026;SHT31;54819;48.030;14.710;2023-05-16T07:49:16;15.59;73.27
68026;SHT31;54819;48.030;14.710;2023-05-16T07:51:43;15.48;73.47
68026;SHT31;54819;48.030;14.710;2023-05-16T07:54:09;15.50;74.65
68026;SHT31;54819;48.030;14.710;2023-05-16T07:56:36;15.52;74.99
68026;SHT31;54819;48.030;14.710;2023-05-16T07:59:03;15.49;74.52
68026;SHT31;54819;48.030;14.710;2023-05-16T08:01:31;15.51;74.87
68026;SHT31;54819;48.030;14.710;2023-05-16T08:03:58;15.58;74.65
68026;SHT31;54819;48.030;14.710;2023-05-16T08:06:25;15.68;74.94
68026;SHT31;54819;48.030;14.710;2023-05-16T08:08:51;15.75;74.78
68026;SHT31;54819;48.030;14.710;2023-05-16T08:11:18;15.87;74.78
68026;SHT31;54819;48.030;14.710;2023-05-16T08:13:48;16.00;74.91
68026;SHT31;54819;48.030;14.710;2023-05-16T08:16:15;16.11;74.81
68026;SHT31;54819;48.030;14.710;2023-05-16T08:18:42;16.18;74.26
68026;SHT31;54819;48.030;14.710;2023-05-16T08:21:09;16.21;74.26
68026;SHT31;54819;48.030;14.710;2023-05-16T08:23:36;16.23;73.78
68026;SHT31;54819;48.030;14.710;2023-05-16T08:26:02;16.21;73.55
68026;SHT31;54819;48.030;14.710;2023-05-16T08:28:29;16.13;72.68
68026;SHT31;54819;48.030;14.710;2023-05-16T08:30:56;16.00;72.50
68026;SHT31;54819;48.030;14.710;2023-05-16T08:33:23;15.98;73.84
68026;SHT31;54819;48.030;14.710;2023-05-16T08:35:50;15.95;73.83
68026;SHT31;54819;48.030;14.710;2023-05-16T08:38:19;15.87;73.61
68026;SHT31;54819;48.030;14.710;2023-05-16T08:40:46;15.79;73.40
68026;SHT31;54819;48.030;14.710;2023-05-16T08:43:13;15.75;73.60
68026;SHT31;54819;48.030;14.710;2023-05-16T08:45:40;15.70;73.58
68026;SHT31;54819;48.030;14.710;2023-05-16T08:48:08;15.60;73.01
68026;SHT31;54819;48.030;14.710;2023-05-16T08:50:37;15.54;73.53
68026;SHT31;54819;48.030;14.710;2023-05-16T08:53:04;15.57;74.05
68026;SHT31;54819;48.030;14.710;2023-05-16T08:55:34;15.52;73.63
68026;SHT31;54819;48.030;14.710;2023-05-16T08:58:02;15.41;73.82
68026;SHT31;54819;48.030;14.710;2023-05-16T09:00:30;15.35;74.21
68026;SHT31;54819;48.030;14.710;2023-05-16T09:02:57;15.25;73.69
68026;SHT31;54819;48.030;14.710;2023-05-16T09:05:24;15.27;73.69
68026;SHT31;54819;48.030;14.710;2023-05-16T09:07:53;15.28;73.59
68026;SHT31;54819;48.030;14.710;2023-05-16T09:10:20;15.30;73.79
68026;SHT31;54819;48.030;14.710;2023-05-16T09:12:47;15.26;73.77
68026;SHT31;54819;48.030;14.710;2023-05-16T09:15:13;15.25;74.44
68026;SHT31;54819;48.030;14.710;2023-05-16T09:17:45;15.26;74.49
68026;SHT31;54819;48.030;14.710;2023-05-16T09:20:14;15.25;74.60
68026;SHT31;54819;48.030;14.710;2023-05-16T09:22:50;15.21;74.68
68026;SHT31;54819;48.030;14.710;2023-05-16T09:25:21;15.13;74.52
68026;SHT31;54819;48.030;14.710;2023-05-16T09:27:57;15.01;74.78
68026;SHT31;54819;48.030;14.710;2023-05-16T09:30:29;14.99;75.08
68026;SHT31;54819;48.030;14.710;2023-05-16T09:32:59;14.98;75.19
68026;SHT31;54819;48.030;14.710;2023-05-16T09:35:26;14.99;75.29
68026;SHT31;54819;48.030;14.710;2023-05-16T09:37:56;14.99;75.61
68026;SHT31;54819;48.030;14.710;2023-05-16T09:40:22;15.01;75.65
68026;SHT31;54819;48.030;14.710;2023-05-16T09:43:03;14.97;75.50
68026;SHT31;54819;48.030;14.710;2023-05-16T09:45:33;14.95;75.34
68026;SHT31;54819;48.030;14.710;2023-05-16T09:48:10;14.94;75.42
68026;SHT31;54819;48.030;14.710;2023-05-16T09:50:40;14.94;75.82
68026;SHT31;54819;48.030;14.710;2023-05-16T09:53:26;14.96;76.18
68026;SHT31;54819;48.030;14.710;2023-05-16T09:56:02;14.96;76.65
68026;SHT31;54819;48.030;14.710;2023-05-16T09:58:40;14.97;76.51
68026;SHT31;54819;48.030;14.710;2023-05-16T10:01:10;14.92;76.77
68026;SHT31;54819;48.030;14.710;2023-05-16T10:03:38;14.87;77.23
68026;SHT31;54819;48.030;14.710;2023-05-16T10:06:07;14.83;77.54
68026;SHT31;54819;48.030;14.710;2023-05-16T10:08:35;14.79;77.89
68026;SHT31;54819;48.030;14.710;2023-05-16T10:11:04;14.73;77.94
68026;SHT31;54819;48.030;14.710;2023-05-16T10:13:33;14.69;78.06
68026;SHT31;54819;48.030;14.710;2023-05-16T10:16:11;14.67;78.66
68026;SHT31;54819;48.030;14.710;2023-05-16T10:18:39;14.64;78.85
68026;SHT31;54819;48.030;14.710;2023-05-16T10:21:14;14.60;78.87
68026;SHT31;54819;48.030;14.710;2023-05-16T10:23:44;14.54;79.09
68026;SHT31;54819;48.030;14.710;2023-05-16T10:26:16;14.53;79.10
68026;SHT31;54819;48.030;14.710;2023-05-16T10:28:43;14.56;79.10
68026;SHT31;54819;48.030;14.710;2023-05-16T10:31:11;14.59;79.16
68026;SHT31;54819;48.030;14.710;2023-05-16T10:33:40;14.64;79.17
68026;SHT31;54819;48.030;14.710;2023-05-16T10:36:08;14.73;79.32
68026;SHT31;54819;48.030;14.710;2023-05-16T10:38:36;14.80;79.57
68026;SHT31;54819;48.030;14.710;2023-05-16T10:41:05;14.85;79.91
68026;SHT31;54819;48.030;14.710;2023-05-16T10:43:33;14.88;79.84
68026;SHT31;54819;48.030;14.710;2023-05-16T10:46:03;14.92;79.91
68026;SHT31;54819;48.030;14.710;2023-05-16T10:48:36;14.92;80.27
68026;SHT31;54819;48.030;14.710;2023-05-16T10:51:52;14.90;80.42
68026;SHT31;54819;48.030;14.710;2023-05-16T10:54:09;14.88;80.49
68026;SHT31;54819;48.030;14.710;2023-05-16T10:56:40;14.88;80.30
68026;SHT31;54819;48.030;14.710;2023-05-16T10:59:21;14.85;80.90
68026;SHT31;54819;48.030;14.710;2023-05-16T11:01:54;14.77;81.43
68026;SHT31;54819;48.030;14.710;2023-05-16T11:04:22;14.80;81.42
68026;SHT31;54819;48.030;14.710;2023-05-16T11:06:49;14.74;81.61
68026;SHT31;54819;48.030;14.710;2023-05-16T11:09:20;14.78;81.22
68026;SHT31;54819;48.030;14.710;2023-05-16T11:17:12;14.84;81.46
68026;SHT31;54819;48.030;14.710;2023-05-16T11:19:54;14.82;81.72
68026;SHT31;54819;48.030;14.710;2023-05-16T11:22:25;14.76;81.80
68026;SHT31;54819;48.030;14.710;2023-05-16T11:24:57;14.76;81.88
68026;SHT31;54819;48.030;14.710;2023-05-16T11:27:31;14.80;81.44
68026;SHT31;54819;48.030;14.710;2023-05-16T11:30:11;14.79;81.22
68026;SHT31;54819;48.030;14.710;2023-05-16T11:32:42;14.76;81.19
68026;SHT31;54819;48.030;14.710;2023-05-16T11:35:11;14.71;80.91
68026;SHT31;54819;48.030;14.710;2023-05-16T11:37:44;14.75;80.82
68026;SHT31;54819;48.030;14.710;2023-05-16T11:40:12;14.81;80.93
68026;SHT31;54819;48.030;14.710;2023-05-16T11:42:42;14.90;80.90
68026;SHT31;54819;48.030;14.710;2023-05-16T11:45:15;15.01;80.85
68026;SHT31;54819;48.030;14.710;2023-05-16T11:47:48;15.16;80.67
68026;SHT31;54819;48.030;14.710;2023-05-16T11:50:16;15.29;80.45
68026;SHT31;54819;48.030;14.710;2023-05-16T11:52:48;15.33;80.25
68026;SHT31;54819;48.030;14.710;2023-05-16T11:55:20;15.26;79.79
68026;SHT31;54819;48.030;14.710;2023-05-16T11:58:06;15.13;80.42
68026;SHT31;54819;48.030;14.710;2023-05-16T12:00:33;15.08;80.43
68026;SHT31;54819;48.030;14.710;2023-05-16T12:03:01;14.93;80.53
68026;SHT31;54819;48.030;14.710;2023-05-16T12:05:31;14.81;80.89
68026;SHT31;54819;48.030;14.710;2023-05-16T12:08:00;14.69;81.86
68026;SHT31;54819;48.030;14.710;2023-05-16T12:10:30;14.64;81.75
68026;SHT31;54819;48.030;14.710;2023-05-16T12:12:59;14.58;81.73
68026;SHT31;54819;48.030;14.710;2023-05-16T12:15:27;14.57;81.82
68026;SHT31;54819;48.030;14.710;2023-05-16T12:17:55;14.61;82.17
68026;SHT31;54819;48.030;14.710;2023-05-16T12:20:22;14.63;82.29
68026;SHT31;54819;48.030;14.710;2023-05-16T12:22:51;14.64;81.49
68026;SHT31;54819;48.030;14.710;2023-05-16T12:25:28;14.65;81.64
68026;SHT31;54819;48.030;14.710;2023-05-16T12:27:58;14.66;81.14
68026;SHT31;54819;48.030;14.710;2023-05-16T12:30:27;14.54;81.05
68026;SHT31;54819;48.030;14.710;2023-05-16T12:35:37;14.40;80.80
68026;SHT31;54819;48.030;14.710;2023-05-16T12:38:13;14.40;80.79
68026;SHT31;54819;48.030;14.710;2023-05-16T12:40:43;14.44;80.97
68026;SHT31;54819;48.030;14.710;2023-05-16T12:43:13;14.45;81.03
68026;SHT31;54819;48.030;14.710;2023-05-16T12:45:52;14.44;80.60
68026;SHT31;54819;48.030;14.710;2023-05-16T12:48:31;14.42;80.84
68026;SHT31;54819;48.030;14.710;2023-05-16T12:51:10;14.44;80.97
68026;SHT31;54819;48.030;14.710;2023-05-16T12:53:43;14.53;81.53
68026;SHT31;54819;48.030;14.710;2023-05-16T12:56:39;14.74;80.94
68026;SHT31;54819;48.030;14.710;2023-05-16T12:59:07;14.81;80.47
68026;SHT31;54819;48.030;14.710;2023-05-16T13:01:34;14.83;80.64
68026;SHT31;54819;48.030;14.710;2023-05-16T13:04:02;14.87;80.78
68026;SHT31;54819;48.030;14.710;2023-05-16T13:06:31;14.91;80.24
68026;SHT31;54819;48.030;14.710;2023-05-16T13:09:18;14.85;80.11
68026;SHT31;54819;48.030;14.710;2023-05-16T13:11:44;14.87;80.37
68026;SHT31;54819;48.030;14.710;2023-05-16T13:14:11;14.94;80.35
68026;SHT31;54819;48.030;14.710;2023-05-16T13:16:38;14.94;80.53
68026;SHT31;54819;48.030;14.710;2023-05-16T13:19:05;14.95;80.19
68026;SHT31;54819;48.030;14.710;2023-05-16T13:21:33;14.94;79.95
68026;SHT31;54819;48.030;14.710;2023-05-16T13:23:59;14.86;79.77
68026;SHT31;54819;48.030;14.710;2023-05-16T13:26:26;14.88;79.98
68026;SHT31;54819;48.030;14.710;2023-05-16T13:28:53;14.92;80.10
68026;SHT31;54819;48.030;14.710;2023-05-16T13:31:20;14.95;79.89
68026;SHT31;54819;48.030;14.710;2023-05-16T13:33:48;14.97;79.88
68026;SHT31;54819;48.030;14.710;2023-05-16T13:36:14;14.88;79.90
68026;SHT31;54819;48.030;14.710;2023-05-16T13:38:41;14.78;80.01
68026;SHT31;54819;48.030;14.710;2023-05-16T13:41:08;14.72;80.20
68026;SHT31;54819;48.030;14.710;2023-05-16T13:43:35;14.69;80.28
68026;SHT31;54819;48.030;14.710;2023-05-16T13:46:01;14.66;80.39
68026;SHT31;54819;48.030;14.710;2023-05-16T13:48:29;14.64;80.61
68026;SHT31;54819;48.030;14.710;2023-05-16T13:50:55;14.64;80.80
68026;SHT31;54819;48.030;14.710;2023-05-16T13:53:22;14.61;81.18
68026;SHT31;54819;48.030;14.710;2023-05-16T13:55:49;14.57;81.10
68026;SHT31;54819;48.030;14.710;2023-05-16T13:58:16;14.52;81.26
68026;SHT31;54819;48.030;14.710;2023-05-16T14:00:42;14.48;81.16
68026;SHT31;54819;48.030;14.710;2023-05-16T14:03:11;14.44;80.77
68026;SHT31;54819;48.030;14.710;2023-05-16T14:05:38;14.43;80.57
68026;SHT31;54819;48.030;14.710;2023-05-16T14:08:05;14.47;80.42
68026;SHT31;54819;48.030;14.710;2023-05-16T14:10:33;14.54;80.68
68026;SHT31;54819;48.030;14.710;2023-05-16T14:12:59;14.69;80.39
68026;SHT31;54819;48.030;14.710;2023-05-16T14:15:26;14.78;80.14
68026;SHT31;54819;48.030;14.710;2023-05-16T14:17:53;14.80;80.27
68026;SHT31;54819;48.030;14.710;2023-05-16T14:20:20;14.80;80.75
68026;SHT31;54819;48.030;14.710;2023-05-16T14:22:48;14.81;80.48
68026;SHT31;54819;48.030;14.710;2023-05-16T14:25:14;14.86;80.21
68026;SHT31;54819;48.030;14.710;2023-05-16T14:27:41;14.81;80.35
68026;SHT31;54819;48.030;14.710;2023-05-16T14:30:08;14.70;80.73
68026;SHT31;54819;48.030;14.710;2023-05-16T14:32:35;14.71;81.03
68026;SHT31;54819;48.030;14.710;2023-05-16T14:35:02;14.69;80.95
68026;SHT31;54819;48.030;14.710;2023-05-16T14:37:30;14.70;80.66
68026;SHT31;54819;48.030;14.710;2023-05-16T14:39:57;14.68;80.05
68026;SHT31;54819;48.030;14.710;2023-05-16T14:42:26;14.66;80.12
68026;SHT31;54819;48.030;14.710;2023-05-16T14:44:52;14.58;80.17
68026;SHT31;54819;48.030;14.710;2023-05-16T14:47:19;14.55;80.20
68026;SHT31;54819;48.030;14.710;2023-05-16T14:49:46;14.56;80.33
68026;SHT31;54819;48.030;14.710;2023-05-16T14:52:13;14.53;80.22
68026;SHT31;54819;48.030;14.710;2023-05-16T14:54:39;14.48;80.65
68026;SHT31;54819;48.030;14.710;2023-05-16T14:57:06;14.48;80.96
68026;SHT31;54819;48.030;14.710;2023-05-16T14:59:33;14.55;81.04
68026;SHT31;54819;48.030;14.710;2023-05-16T15:02:00;14.59;81.06
68026;SHT31;54819;48.030;14.710;2023-05-16T15:04:27;14.71;80.86
68026;SHT31;54819;48.030;14.710;2023-05-16T15:06:54;14.69;80.54
68026;SHT31;54819;48.030;14.710;2023-05-16T15:09:21;14.59;80.58
68026;SHT31;54819;48.030;14.710;2023-05-16T15:11:48;14.51;80.92
68026;SHT31;54819;48.030;14.710;2023-05-16T15:14:15;14.51;81.09
68026;SHT31;54819;48.030;14.710;2023-05-16T15:16:41;14.45;81.44
68026;SHT31;54819;48.030;14.710;2023-05-16T15:19:08;14.39;81.98
68026;SHT31;54819;48.030;14.710;2023-05-16T15:21:35;14.46;81.73
68026;SHT31;54819;48.030;14.710;2023-05-16T15:24:02;14.49;81.55
68026;SHT31;54819;48.030;14.710;2023-05-16T15:26:30;14.44;81.44
68026;SHT31;54819;48.030;14.710;2023-05-16T15:28:56;14.35;81.45
68026;SHT31;54819;48.030;14.710;2023-05-16T15:31:23;14.26;81.31
68026;SHT31;54819;48.030;14.710;2023-05-16T15:33:50;14.23;81.39
68026;SHT31;54819;48.030;14.710;2023-05-16T15:36:17;14.21;81.49
68026;SHT31;54819;48.030;14.710;2023-05-16T15:38:44;14.21;81.58
68026;SHT31;54819;48.030;14.710;2023-05-16T15:41:12;14.23;81.50
68026;SHT31;54819;48.030;14.710;2023-05-16T15:44:00;14.22;81.55